« Back
NWS Peachtree City, Ga » Text Product » MCN Terminal Aerodrome Forecast


Printer-friendly Version
Current Version              Previous Versions:   1  2  3  4  5  6  7  8  9  

Terminal Aerodrome Forecast

676
FTUS42 KFFC 290100 AAA
TAFMCN
TAF AMD
KMCN 290100Z 2901/2924 03010KT 6SM -SHRA SCT045 BKN100
      TEMPO 2901/2903 1SM SHRA BR BKN035
     FM290400 07006KT P6SM FEW100 SCT200
     FM290800 35002KT P6SM SCT150
     FM291600 32005KT P6SM FEW050 SCT250 PROB30 2919/2923 VRB10G17KT
      2SM TSRA BR BKN030CB
     FM292300 27003KT P6SM SCT060=

USA.gov is the U.S. government's official web portal to all federal, state and local government web resources and services.